Terminal Aerodrome Forecast
Issued by NWS Omaha/Valley, NE

Home | Current Version | Previous Version | Text Only | Print | Product List | Glossary On
Versions: 1 2 3 4 5 6 7 8 9 10 11 12 13 14 15 16 17 18 19 20 21 22 23 24 25 26
000
FTUS43 KOAX 191738
TAFLNK
TAF
KLNK 191738Z 1918/2018 16009KT P6SM SKC
     FM200300 17009KT P6SM FEW250 WS020/20043KT
     FM200600 18011KT P6SM FEW250 WS020/21051KT
     FM201400 18012KT P6SM SCT250 WS020/20051KT
     FM201500 18020G27KT P6SM SCT120 BKN250=

USA.gov is the U.S. government's official web portal to all federal, state and local government web resources and services.